Lake Milton, OH (44429)

11:58 PM EST on February 13, 2016 (GMT -0500)
KOHBERLI2 | | Change Station
CLOSE
Current Station
Personal Weather Station
Location: Berlin Center, OH
Elevation: 1053 ft
Nearby Weather Stations

Elev 1053 ft 41.07 °N, 80.95 °W | Updated 3 seconds ago

Overcast
Overcast
-2.0 °F
Feels Like -2 °F
N
0.0
Wind Variable Wind from SW
Gusts 0.0 mph

Today
High -- | Low -- °F
--% Chance of Precip.
Yesterday
High -- | Low -- °F
Precip. -- in
Pressure 30.40 in
Visibility 2.5 miles
Clouds Scattered Clouds 1700 ft
Mostly Cloudy 2400 ft
Overcast 5500 ft
Windchill -2 °F
Dew Point -15 °F
Humidity 54%
Rainfall 0.00 in
Snow Depth Not available.
7:21 AM 5:55 PM
Waxing Crescent, 37% visible
METAR KPOV 140439Z AUTO 00000KT 2 1/2SM -SN SCT017 BKN024 OVC055 M14/M17 A3040 RMK AO2 T11421166
Pressure 30.40 in
Visibility 2.5 miles
Clouds Scattered Clouds 1700 ft
Mostly Cloudy 2400 ft
Overcast 5500 ft
Windchill -2 °F
Dew Point -15 °F
Humidity 54%
Rainfall 0.00 in
Snow Depth Not available.
7:21 AM 5:55 PM
Waxing Crescent, 37% visible
METAR KPOV 140439Z AUTO 00000KT 2 1/2SM -SN SCT017 BKN024 OVC055 M14/M17 A3040 RMK AO2 T11421166

10-Day Weather Forecast

Almanac

Astronomy

Feb. 13, 2016 Rise Set
Actual Time
Civil Twilight
Nautical Twilight
Astronomical Twilight
Moon
Length of Visible Light
Length of Day
Tomorrow will be .
, % of the Moon is Illuminated

Today's Extremes

State Highs State Lows

Community

WunderPhotos

Upload Photos

1,892,746 photos uploaded!

WunderBlog® & News

Nearby

Air Quality

  Air Quality AQ Index Pollutant
Not available.

Snow Depth

Station Depth Elevation

Earthquake Activity

City Distance Mag. Time & Date
Minimum magnitude displayed is 2.5.

Coastal Water Temperatures

Place Temperature

Stations

Nearby Weather Stations

Station Location Temp. Windchill Dew Point Humidity Wind Precip. Elev Updated Type
                   

Watches & Warnings

Wind Chill Advisory
Issued: 8:22 PM EST Feb. 13, 2016 – National Weather Service

... Wind Chill Advisory remains in effect until 10 am EST Sunday...

* wind chill... as low as 14 below due to temperatures 1 to 10
above... and winds northwest 10 to 20 mph.

* Impacts... dangerous wind chills can result in frostbite or
hypothermia in just a few minutes. Frigid temperatures could
freeze water pipes.

* Winds... northwest 10 to 20 mph with.

* Temperatures... 1 to 10 above.

Precautionary/preparedness actions... a Wind Chill Advisory is
issued when strong wind will combine with cold temperatures to
create dangerously cold conditions for exposed skin. The wind
will make it feel like it is 10 degrees below zero or colder for
a period of several hours. If you will be outdoors use common
sense and dress warmly... making sure that all exposed skin is
covered. Stay tuned to weather radio for further details or
updates.